createdAt,value
2022-10-12T00:41:43.196Z,7.90
2022-10-12T07:36:14.334Z,6.90
2022-10-12T07:38:46.070Z,8.00
2022-10-12T07:41:13.570Z,8.00
2022-10-12T07:43:40.690Z,8.10
2022-10-12T07:46:08.224Z,8.10
2022-10-12T07:48:35.493Z,8.20
2022-10-12T07:51:06.843Z,8.30
2022-10-12T07:53:39.778Z,8.40
2022-10-12T07:56:15.196Z,8.50
2022-10-12T07:58:53.768Z,8.60
2022-10-12T08:01:23.113Z,8.60
2022-10-12T08:03:50.444Z,8.70
2022-10-12T08:06:20.979Z,8.80
2022-10-12T08:08:48.876Z,8.80
2022-10-12T08:11:16.316Z,8.90
2022-10-12T08:13:43.449Z,9.00
2022-10-12T08:16:13.113Z,9.00
2022-10-12T08:18:40.019Z,9.00
2022-10-12T08:21:08.774Z,9.10
2022-10-12T08:23:36.396Z,9.10
2022-10-12T08:26:03.876Z,9.20
2022-10-12T08:28:30.911Z,9.20
2022-10-12T08:31:00.470Z,9.20
2022-10-12T08:33:30.054Z,9.30
2022-10-12T08:35:57.002Z,9.30
2022-10-12T08:38:23.943Z,9.40
2022-10-12T08:40:57.464Z,9.40
2022-10-12T08:43:25.894Z,9.50
2022-10-12T08:45:54.694Z,9.70
2022-10-12T08:48:42.596Z,9.70
2022-10-12T08:51:19.006Z,9.80
2022-10-12T08:53:57.703Z,10.00
2022-10-12T08:56:24.852Z,10.10
2022-10-12T08:58:53.068Z,10.20
2022-10-12T09:01:32.454Z,10.30
2022-10-12T09:04:20.786Z,10.50
2022-10-12T09:07:07.453Z,10.60
2022-10-12T09:10:12.076Z,10.70
2022-10-12T09:58:55.553Z,10.80
2022-10-12T10:01:22.461Z,12.30
2022-10-12T10:04:10.900Z,12.60
2022-10-12T10:06:39.868Z,12.70
2022-10-12T10:09:15.003Z,12.80
2022-10-12T10:11:41.942Z,12.80
2022-10-12T10:14:15.341Z,12.80
2022-10-12T10:16:49.986Z,12.70
2022-10-12T10:19:19.107Z,13.00
2022-10-12T10:21:46.439Z,12.80
2022-10-12T10:40:01.350Z,13.00
2022-10-12T10:45:07.096Z,13.70
2022-10-12T10:50:08.417Z,14.40
2022-10-12T10:52:37.158Z,14.90
2022-10-12T10:55:48.803Z,15.10
2022-10-12T10:58:37.411Z,15.50
2022-10-12T11:01:41.716Z,15.80
2022-10-12T11:04:15.133Z,16.00
2022-10-12T11:06:52.578Z,16.50
2022-10-12T11:09:30.362Z,16.80
2022-10-12T11:12:01.295Z,16.70
2022-10-12T11:14:35.890Z,16.60
2022-10-12T11:17:19.682Z,16.20
2022-10-12T11:19:54.620Z,16.60
2022-10-12T11:22:40.948Z,16.50
2022-10-12T11:25:36.028Z,16.70
2022-10-12T11:28:02.858Z,16.20
2022-10-12T11:30:40.585Z,16.30
2022-10-12T11:33:14.215Z,16.80
2022-10-12T11:35:45.236Z,16.60
2022-10-12T11:38:26.920Z,17.20
2022-10-12T11:41:18.924Z,17.30
2022-10-12T11:44:01.240Z,16.90
2022-10-12T11:46:35.721Z,17.10
2022-10-12T11:49:31.838Z,17.00
2022-10-12T11:52:05.267Z,17.20
2022-10-12T11:55:08.309Z,16.90
2022-10-12T11:57:38.007Z,16.80
2022-10-12T12:00:16.239Z,16.60
2022-10-12T12:02:57.339Z,16.20
2022-10-12T12:05:24.210Z,16.40
2022-10-12T12:07:55.468Z,16.50
2022-10-12T12:10:30.589Z,17.10
2022-10-12T12:13:15.344Z,17.20
2022-10-12T12:15:49.649Z,17.10
2022-10-12T12:18:28.817Z,16.90
2022-10-12T12:21:09.466Z,16.80
2022-10-12T12:23:51.407Z,17.20
2022-10-12T12:26:20.512Z,16.90
2022-10-12T12:29:07.996Z,16.90
2022-10-12T12:31:35.018Z,17.40
2022-10-12T12:34:12.996Z,17.20
2022-10-12T12:36:44.932Z,17.20
2022-10-12T12:39:26.802Z,17.70
2022-10-12T12:42:08.225Z,17.40
2022-10-12T12:44:37.962Z,17.60
2022-10-12T12:47:26.005Z,17.50
2022-10-12T12:50:31.848Z,17.30
2022-10-12T12:53:05.283Z,17.10
2022-10-12T12:55:39.717Z,17.20
2022-10-12T12:58:34.753Z,17.00
2022-10-12T13:01:04.296Z,18.20
2022-10-12T13:03:55.374Z,17.90
2022-10-12T13:06:45.293Z,17.50
2022-10-12T13:09:33.559Z,17.50
2022-10-12T13:12:34.381Z,17.00
2022-10-12T13:15:07.721Z,17.10
2022-10-12T13:18:03.488Z,17.30
2022-10-12T13:20:33.508Z,16.80
2022-10-12T13:23:03.459Z,17.30
2022-10-12T13:25:43.316Z,17.10
2022-10-12T13:28:18.556Z,17.10
2022-10-12T13:30:54.651Z,17.60
2022-10-12T13:33:37.194Z,18.20
2022-10-12T13:36:03.938Z,17.90
2022-10-12T13:38:31.820Z,17.80
2022-10-12T13:41:04.770Z,17.50
2022-10-12T13:43:42.565Z,17.10
2022-10-12T13:46:13.121Z,17.00
2022-10-12T13:48:58.689Z,17.40
2022-10-12T13:51:28.486Z,17.60
2022-10-12T13:53:56.460Z,18.10
2022-10-12T13:56:28.196Z,18.10
2022-10-12T13:59:04.227Z,18.10
2022-10-12T14:01:35.484Z,17.70
2022-10-12T14:04:04.815Z,17.20
2022-10-12T14:06:36.000Z,17.10
2022-10-12T14:09:27.049Z,17.00
2022-10-12T14:11:55.647Z,17.10
2022-10-12T14:14:38.662Z,16.90
2022-10-12T14:17:05.677Z,16.80
2022-10-12T14:19:43.045Z,16.90
2022-10-12T14:22:10.595Z,16.50
2022-10-12T14:24:37.963Z,16.50
2022-10-12T14:27:07.112Z,16.60
2022-10-12T14:29:39.512Z,16.50
2022-10-12T14:32:29.467Z,16.30
2022-10-12T14:35:11.906Z,16.60
2022-10-12T14:37:38.984Z,16.50
2022-10-12T14:40:27.665Z,16.60
2022-10-12T14:42:59.744Z,16.70
2022-10-12T14:45:27.016Z,16.50
2022-10-12T14:47:54.068Z,16.50
2022-10-12T14:50:21.984Z,16.30
2022-10-12T14:52:52.744Z,16.40
2022-10-12T14:55:22.676Z,16.30
2022-10-12T14:57:49.966Z,16.30
2022-10-12T15:00:19.743Z,16.20
2022-10-12T15:02:47.062Z,16.30
2022-10-12T15:05:16.415Z,16.50
2022-10-12T15:07:44.415Z,16.40
2022-10-12T15:10:11.384Z,16.60
2022-10-12T15:12:38.437Z,16.60
2022-10-12T15:15:28.921Z,16.60
2022-10-12T15:17:56.511Z,16.90
2022-10-12T15:20:23.403Z,16.90
2022-10-12T15:22:50.158Z,16.90
2022-10-12T15:25:37.675Z,16.90
2022-10-12T15:28:05.298Z,16.80
2022-10-12T15:30:32.958Z,16.70
2022-10-12T15:32:59.845Z,16.60
2022-10-12T15:35:28.623Z,16.50
2022-10-12T15:37:58.109Z,16.40
2022-10-12T15:40:27.922Z,16.30
2022-10-12T15:42:54.999Z,16.30
2022-10-12T15:45:25.483Z,16.20
2022-10-12T15:47:53.157Z,16.00
2022-10-12T15:50:26.025Z,16.00
2022-10-12T15:52:54.393Z,15.90
2022-10-12T15:55:24.243Z,15.90
2022-10-12T15:57:51.734Z,15.80
2022-10-12T16:00:21.553Z,15.70
2022-10-12T16:02:48.677Z,15.60
2022-10-12T16:05:23.153Z,15.60
2022-10-12T16:07:50.765Z,15.60
2022-10-12T16:10:21.904Z,15.40
2022-10-12T16:12:51.115Z,15.40
2022-10-12T16:15:22.940Z,15.30
2022-10-12T16:17:50.581Z,15.30
2022-10-12T16:20:17.777Z,15.40
2022-10-12T16:22:45.141Z,15.30
2022-10-12T16:25:13.845Z,15.10
2022-10-12T16:27:40.715Z,15.30
2022-10-12T16:30:08.624Z,15.30
2022-10-12T16:32:35.484Z,15.30
2022-10-12T16:35:02.464Z,15.30
2022-10-12T16:37:29.894Z,15.10
2022-10-12T16:39:56.712Z,15.10
2022-10-12T16:42:23.672Z,15.10
2022-10-12T16:44:50.484Z,15.00
2022-10-12T16:47:17.460Z,15.10
2022-10-12T16:49:44.234Z,14.90
2022-10-12T16:52:11.186Z,15.00
2022-10-12T16:54:38.118Z,14.90
2022-10-12T16:57:05.039Z,14.80
2022-10-12T16:59:31.805Z,14.80
2022-10-12T17:01:58.723Z,14.70
2022-10-12T17:04:25.866Z,14.60
2022-10-12T17:06:54.330Z,14.60
2022-10-12T17:09:21.350Z,14.40
2022-10-12T17:11:48.528Z,14.40
2022-10-12T17:14:17.075Z,14.30
2022-10-12T17:16:49.795Z,14.30
2022-10-12T17:19:23.859Z,14.30
2022-10-12T17:21:52.529Z,14.20
2022-10-12T17:24:21.526Z,14.20
2022-10-12T17:26:48.319Z,14.20
2022-10-12T17:29:18.391Z,14.10
2022-10-12T17:31:46.931Z,14.00
2022-10-12T17:34:23.248Z,14.00
2022-10-12T17:36:51.371Z,13.80
2022-10-12T17:39:18.856Z,13.90
2022-10-12T17:41:46.142Z,13.80
2022-10-12T17:44:13.165Z,13.80
2022-10-12T17:46:41.297Z,13.80
2022-10-12T17:49:11.398Z,13.70
2022-10-12T17:51:38.144Z,13.70
2022-10-12T17:54:05.063Z,13.60
2022-10-12T17:56:31.927Z,13.60
2022-10-12T17:59:01.161Z,13.60
2022-10-12T18:01:29.148Z,13.60
2022-10-12T18:03:58.944Z,13.50
2022-10-12T18:06:25.877Z,13.40
2022-10-12T18:08:53.073Z,13.40
2022-10-12T18:11:21.336Z,13.40
2022-10-12T18:13:50.242Z,13.30
2022-10-12T18:16:18.902Z,13.30
2022-10-12T18:18:46.029Z,13.30
2022-10-12T18:21:14.044Z,13.10
2022-10-12T18:23:41.274Z,13.10
2022-10-12T18:26:09.930Z,13.10
2022-10-12T18:28:40.248Z,13.00
2022-10-12T18:31:07.563Z,13.00
2022-10-12T18:33:34.673Z,12.90
2022-10-12T18:36:07.024Z,12.80
2022-10-12T18:38:34.573Z,12.80
2022-10-12T18:41:06.845Z,12.70
2022-10-12T18:43:34.467Z,12.70
2022-10-12T18:46:08.846Z,12.70
2022-10-12T18:48:35.735Z,12.60
2022-10-12T18:51:08.837Z,12.60
2022-10-12T18:53:35.691Z,12.60
2022-10-12T18:56:04.580Z,12.60
2022-10-12T18:58:31.969Z,12.50
2022-10-12T19:13:24.339Z,12.60
2022-10-12T19:15:51.278Z,12.20
2022-10-12T19:18:18.093Z,12.30
2022-10-12T19:20:44.924Z,12.30
2022-10-12T19:23:11.908Z,12.30
2022-10-12T19:25:38.743Z,12.20
2022-10-12T19:28:05.571Z,12.10
2022-10-12T20:41:57.736Z,12.20
2022-10-12T20:44:24.542Z,11.30
2022-10-12T20:46:51.492Z,11.30
2022-10-12T20:49:18.510Z,11.20
2022-10-12T20:51:45.593Z,11.20
2022-10-12T20:54:18.290Z,11.20
2022-10-12T20:56:47.606Z,11.20
2022-10-12T20:59:14.431Z,11.10
2022-10-12T21:01:41.481Z,11.20
2022-10-12T21:04:10.538Z,11.10
2022-10-12T21:06:38.334Z,11.10
2022-10-12T21:09:07.764Z,11.10
2022-10-12T21:11:34.872Z,11.00
2022-10-12T21:14:01.768Z,11.00
2022-10-12T21:16:28.633Z,11.00
2022-10-12T21:18:55.964Z,10.90
2022-10-12T21:21:24.364Z,10.90
2022-10-12T21:23:57.938Z,10.90
2022-10-12T21:26:27.954Z,10.90
2022-10-12T21:28:54.900Z,10.80
2022-10-12T21:31:22.472Z,10.80
2022-10-12T21:36:19.710Z,10.80
2022-10-12T21:38:47.148Z,10.70
2022-10-12T21:41:15.092Z,10.70
2022-10-12T21:43:43.345Z,10.70
2022-10-12T21:46:13.065Z,10.70
2022-10-12T21:48:40.460Z,10.60
2022-10-12T21:51:07.362Z,10.70
2022-10-12T21:53:35.092Z,10.50
2022-10-12T21:56:15.390Z,10.60
2022-10-12T21:58:42.308Z,10.60
2022-10-12T22:01:13.568Z,10.60
2022-10-12T22:03:41.864Z,10.60
2022-10-12T22:06:14.574Z,10.60
2022-10-12T22:08:41.795Z,10.60
2022-10-12T22:11:12.449Z,10.60
2022-10-12T22:13:39.251Z,10.60
2022-10-12T22:16:12.797Z,10.60
2022-10-12T22:18:40.297Z,10.60
2022-10-12T22:21:15.830Z,10.60
2022-10-12T22:23:43.800Z,10.60
2022-10-12T22:26:14.503Z,10.60
2022-10-12T22:28:41.528Z,10.60
2022-10-12T22:31:09.860Z,10.60
2022-10-12T22:33:37.534Z,10.60
2022-10-12T22:36:05.770Z,10.50
2022-10-12T22:38:34.918Z,10.50
2022-10-12T22:41:03.991Z,10.50
2022-10-12T22:43:31.061Z,10.50
2022-10-12T22:45:58.210Z,10.40
2022-10-12T22:48:25.926Z,10.40
2022-10-12T22:50:53.486Z,10.40
2022-10-12T22:53:22.417Z,10.40
2022-10-12T22:56:01.559Z,10.50
2022-10-12T22:58:29.680Z,10.40
2022-10-12T23:01:13.922Z,10.40
2022-10-12T23:03:41.733Z,10.40
2022-10-12T23:06:09.360Z,10.50
2022-10-12T23:08:38.059Z,10.50
2022-10-12T23:11:06.309Z,10.50
2022-10-12T23:13:34.379Z,10.50
2022-10-12T23:16:06.524Z,10.60
2022-10-12T23:18:34.193Z,10.60
2022-10-12T23:21:05.695Z,10.60
2022-10-12T23:23:34.804Z,10.60
2022-10-12T23:26:04.947Z,10.60
2022-10-12T23:28:31.940Z,10.60
2022-10-12T23:30:58.862Z,10.60
2022-10-12T23:33:25.748Z,10.60
2022-10-12T23:35:57.737Z,10.70
2022-10-12T23:38:25.028Z,10.60
2022-10-12T23:40:54.980Z,10.60
2022-10-12T23:43:21.878Z,10.60
2022-10-12T23:45:48.748Z,10.60
2022-10-12T23:48:15.897Z,10.60
2022-10-12T23:50:42.935Z,10.60
2022-10-12T23:53:10.629Z,10.50
2022-10-12T23:55:37.645Z,10.40
2022-10-12T23:58:05.392Z,10.50
